sensor_id;sensor_type;location;lat;lon;timestamp;P1;durP1;ratioP1;P2;durP2;ratioP2
10045;SDS011;5063;50.878;4.742;2023-06-26T00:02:16;4.93;;;3.97;;
10045;SDS011;5063;50.878;4.742;2023-06-26T00:04:42;4.85;;;4.38;;
10045;SDS011;5063;50.878;4.742;2023-06-26T00:07:09;5.60;;;4.25;;
10045;SDS011;5063;50.878;4.742;2023-06-26T00:09:35;6.88;;;5.13;;
10045;SDS011;5063;50.878;4.742;2023-06-26T00:12:01;3.88;;;3.55;;
10045;SDS011;5063;50.878;4.742;2023-06-26T00:14:27;7.65;;;4.60;;
10045;SDS011;5063;50.878;4.742;2023-06-26T00:16:53;6.35;;;4.57;;
10045;SDS011;5063;50.878;4.742;2023-06-26T00:19:18;5.47;;;4.45;;
10045;SDS011;5063;50.878;4.742;2023-06-26T00:21:44;4.40;;;4.00;;
10045;SDS011;5063;50.878;4.742;2023-06-26T00:24:13;4.85;;;4.38;;
10045;SDS011;5063;50.878;4.742;2023-06-26T00:26:39;6.25;;;4.30;;
10045;SDS011;5063;50.878;4.742;2023-06-26T00:29:05;4.43;;;4.03;;
10045;SDS011;5063;50.878;4.742;2023-06-26T00:31:31;4.90;;;4.28;;
10045;SDS011;5063;50.878;4.742;2023-06-26T00:33:57;5.50;;;4.50;;
10045;SDS011;5063;50.878;4.742;2023-06-26T00:36:22;7.72;;;4.65;;
10045;SDS011;5063;50.878;4.742;2023-06-26T00:38:49;5.47;;;4.30;;
10045;SDS011;5063;50.878;4.742;2023-06-26T00:41:15;5.03;;;4.15;;
10045;SDS011;5063;50.878;4.742;2023-06-26T00:43:41;5.53;;;3.80;;
10045;SDS011;5063;50.878;4.742;2023-06-26T00:46:09;6.40;;;4.60;;
10045;SDS011;5063;50.878;4.742;2023-06-26T00:48:37;6.57;;;5.10;;
10045;SDS011;5063;50.878;4.742;2023-06-26T00:51:04;5.07;;;4.57;;
10045;SDS011;5063;50.878;4.742;2023-06-26T00:53:30;5.65;;;4.28;;
10045;SDS011;5063;50.878;4.742;2023-06-26T00:55:57;4.93;;;4.10;;
10045;SDS011;5063;50.878;4.742;2023-06-26T00:58:23;4.70;;;4.15;;
10045;SDS011;5063;50.878;4.742;2023-06-26T01:00:53;6.38;;;5.03;;
10045;SDS011;5063;50.878;4.742;2023-06-26T01:03:22;5.97;;;4.28;;
10045;SDS011;5063;50.878;4.742;2023-06-26T01:05:50;4.70;;;4.10;;
10045;SDS011;5063;50.878;4.742;2023-06-26T01:08:18;5.53;;;3.97;;
10045;SDS011;5063;50.878;4.742;2023-06-26T01:10:44;4.72;;;4.15;;
10045;SDS011;5063;50.878;4.742;2023-06-26T01:13:11;4.38;;;3.67;;
10045;SDS011;5063;50.878;4.742;2023-06-26T01:15:38;6.35;;;4.47;;
10045;SDS011;5063;50.878;4.742;2023-06-26T01:18:05;5.78;;;4.55;;
10045;SDS011;5063;50.878;4.742;2023-06-26T01:20:32;4.10;;;3.70;;
10045;SDS011;5063;50.878;4.742;2023-06-26T01:28:38;5.57;;;4.30;;
10045;SDS011;5063;50.878;4.742;2023-06-26T01:31:06;9.07;;;3.75;;
10045;SDS011;5063;50.878;4.742;2023-06-26T01:33:33;4.50;;;3.88;;
10045;SDS011;5063;50.878;4.742;2023-06-26T01:36:00;5.87;;;3.80;;
10045;SDS011;5063;50.878;4.742;2023-06-26T01:38:26;5.83;;;3.50;;
10045;SDS011;5063;50.878;4.742;2023-06-26T01:40:52;7.55;;;4.25;;
10045;SDS011;5063;50.878;4.742;2023-06-26T01:43:23;4.60;;;3.70;;
10045;SDS011;5063;50.878;4.742;2023-06-26T01:46:01;4.88;;;3.58;;
10045;SDS011;5063;50.878;4.742;2023-06-26T01:48:38;3.53;;;3.20;;
10045;SDS011;5063;50.878;4.742;2023-06-26T01:51:17;6.60;;;3.50;;
10045;SDS011;5063;50.878;4.742;2023-06-26T01:53:46;4.23;;;3.07;;
10045;SDS011;5063;50.878;4.742;2023-06-26T01:56:18;5.33;;;3.93;;
10045;SDS011;5063;50.878;4.742;2023-06-26T01:58:45;3.70;;;3.40;;
10045;SDS011;5063;50.878;4.742;2023-06-26T02:01:12;4.13;;;3.50;;
10045;SDS011;5063;50.878;4.742;2023-06-26T02:03:38;4.43;;;3.45;;
10045;SDS011;5063;50.878;4.742;2023-06-26T02:06:03;6.32;;;3.72;;
10045;SDS011;5063;50.878;4.742;2023-06-26T02:08:29;8.88;;;3.70;;
10045;SDS011;5063;50.878;4.742;2023-06-26T02:10:55;4.00;;;3.27;;
10045;SDS011;5063;50.878;4.742;2023-06-26T02:13:21;7.90;;;3.53;;
10045;SDS011;5063;50.878;4.742;2023-06-26T02:15:46;5.60;;;3.50;;
10045;SDS011;5063;50.878;4.742;2023-06-26T02:18:12;5.33;;;3.17;;
10045;SDS011;5063;50.878;4.742;2023-06-26T02:20:38;3.88;;;3.00;;
10045;SDS011;5063;50.878;4.742;2023-06-26T02:23:05;3.65;;;3.15;;
10045;SDS011;5063;50.878;4.742;2023-06-26T02:25:30;4.60;;;3.83;;
10045;SDS011;5063;50.878;4.742;2023-06-26T02:27:56;4.80;;;3.20;;
10045;SDS011;5063;50.878;4.742;2023-06-26T02:30:22;4.43;;;3.03;;
10045;SDS011;5063;50.878;4.742;2023-06-26T02:32:48;5.43;;;3.40;;
10045;SDS011;5063;50.878;4.742;2023-06-26T02:35:13;3.92;;;3.28;;
10045;SDS011;5063;50.878;4.742;2023-06-26T02:37:39;6.20;;;2.97;;
10045;SDS011;5063;50.878;4.742;2023-06-26T02:40:05;4.22;;;2.80;;
10045;SDS011;5063;50.878;4.742;2023-06-26T02:42:32;5.97;;;3.57;;
10045;SDS011;5063;50.878;4.742;2023-06-26T02:44:59;6.60;;;3.60;;
10045;SDS011;5063;50.878;4.742;2023-06-26T02:47:25;6.17;;;3.67;;
10045;SDS011;5063;50.878;4.742;2023-06-26T02:49:51;8.70;;;4.20;;
10045;SDS011;5063;50.878;4.742;2023-06-26T02:52:16;4.97;;;3.27;;
10045;SDS011;5063;50.878;4.742;2023-06-26T02:54:44;5.37;;;3.67;;
10045;SDS011;5063;50.878;4.742;2023-06-26T02:57:09;6.10;;;3.60;;
10045;SDS011;5063;50.878;4.742;2023-06-26T02:59:35;5.13;;;3.27;;
10045;SDS011;5063;50.878;4.742;2023-06-26T03:02:02;6.07;;;3.27;;
10045;SDS011;5063;50.878;4.742;2023-06-26T03:04:27;4.47;;;3.50;;
10045;SDS011;5063;50.878;4.742;2023-06-26T03:06:53;4.97;;;3.37;;
10045;SDS011;5063;50.878;4.742;2023-06-26T03:09:19;5.87;;;3.63;;
10045;SDS011;5063;50.878;4.742;2023-06-26T03:11:44;6.97;;;3.73;;
10045;SDS011;5063;50.878;4.742;2023-06-26T03:14:10;6.93;;;3.60;;
10045;SDS011;5063;50.878;4.742;2023-06-26T03:16:36;8.23;;;3.70;;
10045;SDS011;5063;50.878;4.742;2023-06-26T03:19:01;5.47;;;3.63;;
10045;SDS011;5063;50.878;4.742;2023-06-26T03:21:27;6.43;;;4.00;;
10045;SDS011;5063;50.878;4.742;2023-06-26T03:23:53;5.00;;;3.60;;
10045;SDS011;5063;50.878;4.742;2023-06-26T03:26:19;5.00;;;3.50;;
10045;SDS011;5063;50.878;4.742;2023-06-26T03:28:44;9.27;;;3.47;;
10045;SDS011;5063;50.878;4.742;2023-06-26T03:31:10;7.40;;;3.80;;
10045;SDS011;5063;50.878;4.742;2023-06-26T03:33:37;7.57;;;3.77;;
10045;SDS011;5063;50.878;4.742;2023-06-26T03:36:03;5.53;;;3.60;;
10045;SDS011;5063;50.878;4.742;2023-06-26T03:38:29;5.83;;;3.50;;
10045;SDS011;5063;50.878;4.742;2023-06-26T03:40:54;6.10;;;3.73;;
10045;SDS011;5063;50.878;4.742;2023-06-26T03:43:20;6.47;;;3.87;;
10045;SDS011;5063;50.878;4.742;2023-06-26T03:45:46;6.87;;;4.17;;
10045;SDS011;5063;50.878;4.742;2023-06-26T03:48:12;10.43;;;4.20;;
10045;SDS011;5063;50.878;4.742;2023-06-26T03:50:37;5.87;;;4.17;;
10045;SDS011;5063;50.878;4.742;2023-06-26T03:53:03;7.90;;;4.03;;
10045;SDS011;5063;50.878;4.742;2023-06-26T03:55:29;7.40;;;4.07;;
10045;SDS011;5063;50.878;4.742;2023-06-26T03:57:54;7.20;;;4.17;;
10045;SDS011;5063;50.878;4.742;2023-06-26T04:00:20;5.47;;;3.70;;
10045;SDS011;5063;50.878;4.742;2023-06-26T04:02:46;6.97;;;3.67;;
10045;SDS011;5063;50.878;4.742;2023-06-26T04:05:12;6.67;;;3.77;;
10045;SDS011;5063;50.878;4.742;2023-06-26T04:07:38;10.83;;;4.00;;
10045;SDS011;5063;50.878;4.742;2023-06-26T04:10:04;9.60;;;4.10;;
10045;SDS011;5063;50.878;4.742;2023-06-26T04:12:30;14.10;;;4.37;;
10045;SDS011;5063;50.878;4.742;2023-06-26T04:14:56;10.13;;;3.90;;
10045;SDS011;5063;50.878;4.742;2023-06-26T04:17:22;7.47;;;3.70;;
10045;SDS011;5063;50.878;4.742;2023-06-26T04:19:47;6.57;;;3.47;;
10045;SDS011;5063;50.878;4.742;2023-06-26T04:22:13;8.73;;;4.20;;
10045;SDS011;5063;50.878;4.742;2023-06-26T04:24:39;11.27;;;4.50;;
10045;SDS011;5063;50.878;4.742;2023-06-26T04:27:05;6.17;;;3.17;;
10045;SDS011;5063;50.878;4.742;2023-06-26T04:29:30;9.77;;;4.07;;
10045;SDS011;5063;50.878;4.742;2023-06-26T04:31:56;11.43;;;3.70;;
10045;SDS011;5063;50.878;4.742;2023-06-26T04:34:26;7.53;;;3.80;;
10045;SDS011;5063;50.878;4.742;2023-06-26T04:36:53;8.33;;;3.63;;
10045;SDS011;5063;50.878;4.742;2023-06-26T04:39:19;9.27;;;4.07;;
10045;SDS011;5063;50.878;4.742;2023-06-26T04:41:45;8.37;;;3.93;;
10045;SDS011;5063;50.878;4.742;2023-06-26T04:44:11;13.70;;;4.03;;
10045;SDS011;5063;50.878;4.742;2023-06-26T04:46:37;13.07;;;4.13;;
10045;SDS011;5063;50.878;4.742;2023-06-26T04:49:09;8.93;;;4.37;;
10045;SDS011;5063;50.878;4.742;2023-06-26T04:51:35;5.80;;;3.67;;
10045;SDS011;5063;50.878;4.742;2023-06-26T04:54:10;9.40;;;3.37;;
10045;SDS011;5063;50.878;4.742;2023-06-26T04:56:36;10.00;;;3.63;;
10045;SDS011;5063;50.878;4.742;2023-06-26T04:59:05;10.33;;;3.77;;
10045;SDS011;5063;50.878;4.742;2023-06-26T05:01:30;8.10;;;3.37;;
10045;SDS011;5063;50.878;4.742;2023-06-26T05:03:57;11.13;;;3.93;;
10045;SDS011;5063;50.878;4.742;2023-06-26T05:06:23;10.37;;;4.23;;
10045;SDS011;5063;50.878;4.742;2023-06-26T05:08:49;10.23;;;3.90;;
10045;SDS011;5063;50.878;4.742;2023-06-26T05:11:15;9.73;;;3.83;;
10045;SDS011;5063;50.878;4.742;2023-06-26T05:13:41;10.33;;;3.40;;
10045;SDS011;5063;50.878;4.742;2023-06-26T05:16:07;9.80;;;3.30;;
10045;SDS011;5063;50.878;4.742;2023-06-26T05:18:34;10.38;;;3.80;;
10045;SDS011;5063;50.878;4.742;2023-06-26T05:21:00;8.90;;;3.92;;
10045;SDS011;5063;50.878;4.742;2023-06-26T05:23:26;9.68;;;3.50;;
10045;SDS011;5063;50.878;4.742;2023-06-26T05:25:56;8.65;;;3.40;;
10045;SDS011;5063;50.878;4.742;2023-06-26T05:28:22;7.95;;;3.28;;
10045;SDS011;5063;50.878;4.742;2023-06-26T05:30:50;4.60;;;2.92;;
10045;SDS011;5063;50.878;4.742;2023-06-26T05:33:17;7.45;;;3.08;;
10045;SDS011;5063;50.878;4.742;2023-06-26T05:35:45;6.35;;;2.67;;
10045;SDS011;5063;50.878;4.742;2023-06-26T05:38:12;7.40;;;3.58;;
10045;SDS011;5063;50.878;4.742;2023-06-26T05:40:38;9.25;;;3.40;;
10045;SDS011;5063;50.878;4.742;2023-06-26T05:43:05;5.68;;;2.63;;
10045;SDS011;5063;50.878;4.742;2023-06-26T05:45:32;6.25;;;2.78;;
10045;SDS011;5063;50.878;4.742;2023-06-26T05:47:58;10.93;;;2.83;;
10045;SDS011;5063;50.878;4.742;2023-06-26T05:50:24;10.68;;;3.05;;
10045;SDS011;5063;50.878;4.742;2023-06-26T05:52:51;6.10;;;3.05;;
10045;SDS011;5063;50.878;4.742;2023-06-26T05:55:17;8.18;;;2.90;;
10045;SDS011;5063;50.878;4.742;2023-06-26T05:57:43;7.68;;;3.00;;
10045;SDS011;5063;50.878;4.742;2023-06-26T06:00:11;8.02;;;3.20;;
10045;SDS011;5063;50.878;4.742;2023-06-26T06:02:38;6.15;;;2.58;;
10045;SDS011;5063;50.878;4.742;2023-06-26T06:05:04;5.63;;;2.63;;
10045;SDS011;5063;50.878;4.742;2023-06-26T06:07:33;9.05;;;2.70;;
10045;SDS011;5063;50.878;4.742;2023-06-26T06:10:00;5.93;;;2.92;;
10045;SDS011;5063;50.878;4.742;2023-06-26T06:12:28;8.70;;;2.92;;
10045;SDS011;5063;50.878;4.742;2023-06-26T06:14:53;8.05;;;3.10;;
10045;SDS011;5063;50.878;4.742;2023-06-26T06:17:20;6.35;;;2.45;;
10045;SDS011;5063;50.878;4.742;2023-06-26T06:19:46;6.53;;;2.97;;
10045;SDS011;5063;50.878;4.742;2023-06-26T06:22:12;6.03;;;2.40;;
10045;SDS011;5063;50.878;4.742;2023-06-26T06:24:38;9.48;;;3.10;;
10045;SDS011;5063;50.878;4.742;2023-06-26T06:27:04;8.05;;;2.97;;
10045;SDS011;5063;50.878;4.742;2023-06-26T06:29:30;5.68;;;2.53;;
10045;SDS011;5063;50.878;4.742;2023-06-26T06:31:56;7.35;;;2.75;;
10045;SDS011;5063;50.878;4.742;2023-06-26T06:34:22;8.48;;;3.08;;
10045;SDS011;5063;50.878;4.742;2023-06-26T06:36:48;7.93;;;2.83;;
10045;SDS011;5063;50.878;4.742;2023-06-26T06:39:15;5.18;;;2.45;;
10045;SDS011;5063;50.878;4.742;2023-06-26T06:41:41;5.28;;;2.33;;
10045;SDS011;5063;50.878;4.742;2023-06-26T06:44:06;7.28;;;2.78;;
10045;SDS011;5063;50.878;4.742;2023-06-26T06:46:32;6.13;;;2.80;;
10045;SDS011;5063;50.878;4.742;2023-06-26T06:48:58;5.78;;;2.75;;
10045;SDS011;5063;50.878;4.742;2023-06-26T06:51:25;6.97;;;2.50;;
10045;SDS011;5063;50.878;4.742;2023-06-26T06:53:51;5.93;;;2.47;;
10045;SDS011;5063;50.878;4.742;2023-06-26T06:56:17;4.05;;;2.35;;
10045;SDS011;5063;50.878;4.742;2023-06-26T06:58:43;3.90;;;2.38;;
10045;SDS011;5063;50.878;4.742;2023-06-26T07:01:10;5.22;;;2.28;;
10045;SDS011;5063;50.878;4.742;2023-06-26T07:03:36;3.67;;;2.08;;
10045;SDS011;5063;50.878;4.742;2023-06-26T07:06:02;5.35;;;2.30;;
10045;SDS011;5063;50.878;4.742;2023-06-26T07:08:28;6.10;;;2.10;;
10045;SDS011;5063;50.878;4.742;2023-06-26T07:10:55;5.47;;;2.13;;
10045;SDS011;5063;50.878;4.742;2023-06-26T07:13:22;9.23;;;2.47;;
10045;SDS011;5063;50.878;4.742;2023-06-26T07:15:48;9.60;;;3.03;;
10045;SDS011;5063;50.878;4.742;2023-06-26T07:18:13;6.05;;;1.98;;
10045;SDS011;5063;50.878;4.742;2023-06-26T07:20:39;6.10;;;2.45;;
10045;SDS011;5063;50.878;4.742;2023-06-26T07:23:06;5.47;;;2.20;;
10045;SDS011;5063;50.878;4.742;2023-06-26T07:25:32;5.82;;;2.00;;
10045;SDS011;5063;50.878;4.742;2023-06-26T07:27:57;6.88;;;2.35;;
10045;SDS011;5063;50.878;4.742;2023-06-26T07:30:23;6.75;;;2.67;;
10045;SDS011;5063;50.878;4.742;2023-06-26T07:32:49;6.50;;;2.50;;
10045;SDS011;5063;50.878;4.742;2023-06-26T07:35:15;4.57;;;2.22;;
10045;SDS011;5063;50.878;4.742;2023-06-26T07:37:41;5.13;;;1.90;;
10045;SDS011;5063;50.878;4.742;2023-06-26T07:40:07;4.30;;;1.98;;
10045;SDS011;5063;50.878;4.742;2023-06-26T07:42:34;13.20;;;2.42;;
10045;SDS011;5063;50.878;4.742;2023-06-26T07:45:00;5.00;;;2.35;;
10045;SDS011;5063;50.878;4.742;2023-06-26T07:47:25;8.35;;;2.20;;
10045;SDS011;5063;50.878;4.742;2023-06-26T07:49:51;8.93;;;2.38;;
10045;SDS011;5063;50.878;4.742;2023-06-26T07:52:18;5.68;;;2.20;;
10045;SDS011;5063;50.878;4.742;2023-06-26T07:54:44;4.22;;;2.22;;
10045;SDS011;5063;50.878;4.742;2023-06-26T07:57:10;5.47;;;2.22;;
10045;SDS011;5063;50.878;4.742;2023-06-26T07:59:37;7.93;;;2.38;;
10045;SDS011;5063;50.878;4.742;2023-06-26T08:02:04;4.35;;;1.75;;
10045;SDS011;5063;50.878;4.742;2023-06-26T08:04:30;5.22;;;2.08;;
10045;SDS011;5063;50.878;4.742;2023-06-26T08:06:57;6.43;;;2.30;;
10045;SDS011;5063;50.878;4.742;2023-06-26T08:09:25;4.20;;;2.33;;
10045;SDS011;5063;50.878;4.742;2023-06-26T08:11:52;5.43;;;2.30;;
10045;SDS011;5063;50.878;4.742;2023-06-26T08:14:19;4.22;;;1.85;;
10045;SDS011;5063;50.878;4.742;2023-06-26T08:16:45;5.32;;;1.90;;
10045;SDS011;5063;50.878;4.742;2023-06-26T08:19:11;5.63;;;2.25;;
10045;SDS011;5063;50.878;4.742;2023-06-26T08:21:38;6.20;;;2.05;;
10045;SDS011;5063;50.878;4.742;2023-06-26T08:24:04;4.00;;;2.00;;
10045;SDS011;5063;50.878;4.742;2023-06-26T08:26:30;4.22;;;1.58;;
10045;SDS011;5063;50.878;4.742;2023-06-26T08:28:56;5.30;;;2.00;;
10045;SDS011;5063;50.878;4.742;2023-06-26T08:31:22;5.60;;;1.90;;
10045;SDS011;5063;50.878;4.742;2023-06-26T08:33:48;4.07;;;1.45;;
10045;SDS011;5063;50.878;4.742;2023-06-26T08:36:13;3.17;;;1.88;;
10045;SDS011;5063;50.878;4.742;2023-06-26T08:38:39;3.20;;;1.67;;
10045;SDS011;5063;50.878;4.742;2023-06-26T08:41:06;6.68;;;1.90;;
10045;SDS011;5063;50.878;4.742;2023-06-26T08:43:32;4.07;;;2.40;;
10045;SDS011;5063;50.878;4.742;2023-06-26T08:45:59;2.10;;;1.60;;
10045;SDS011;5063;50.878;4.742;2023-06-26T08:48:25;2.75;;;1.85;;
10045;SDS011;5063;50.878;4.742;2023-06-26T08:50:55;4.55;;;1.88;;
10045;SDS011;5063;50.878;4.742;2023-06-26T08:53:27;4.97;;;2.10;;
10045;SDS011;5063;50.878;4.742;2023-06-26T08:55:57;7.00;;;2.15;;
10045;SDS011;5063;50.878;4.742;2023-06-26T08:58:24;2.95;;;1.63;;
10045;SDS011;5063;50.878;4.742;2023-06-26T09:00:50;3.45;;;1.73;;
10045;SDS011;5063;50.878;4.742;2023-06-26T09:03:16;4.47;;;1.80;;
10045;SDS011;5063;50.878;4.742;2023-06-26T09:05:42;2.50;;;1.73;;
10045;SDS011;5063;50.878;4.742;2023-06-26T09:08:08;3.92;;;1.67;;
10045;SDS011;5063;50.878;4.742;2023-06-26T09:10:36;5.13;;;1.73;;
10045;SDS011;5063;50.878;4.742;2023-06-26T09:13:02;5.45;;;1.50;;
10045;SDS011;5063;50.878;4.742;2023-06-26T09:15:36;4.47;;;1.80;;
10045;SDS011;5063;50.878;4.742;2023-06-26T09:18:04;3.75;;;1.83;;
10045;SDS011;5063;50.878;4.742;2023-06-26T09:20:30;2.58;;;1.65;;
10045;SDS011;5063;50.878;4.742;2023-06-26T09:22:58;3.10;;;1.60;;
10045;SDS011;5063;50.878;4.742;2023-06-26T09:25:25;3.88;;;1.52;;
10045;SDS011;5063;50.878;4.742;2023-06-26T09:27:51;2.75;;;1.77;;
10045;SDS011;5063;50.878;4.742;2023-06-26T09:30:18;4.45;;;1.85;;
10045;SDS011;5063;50.878;4.742;2023-06-26T09:32:44;3.78;;;1.70;;
10045;SDS011;5063;50.878;4.742;2023-06-26T09:35:10;3.63;;;1.60;;
10045;SDS011;5063;50.878;4.742;2023-06-26T09:37:36;7.72;;;2.15;;
10045;SDS011;5063;50.878;4.742;2023-06-26T09:40:03;6.57;;;1.83;;
10045;SDS011;5063;50.878;4.742;2023-06-26T09:42:30;3.55;;;1.65;;
10045;SDS011;5063;50.878;4.742;2023-06-26T09:44:56;3.10;;;1.55;;
10045;SDS011;5063;50.878;4.742;2023-06-26T09:47:23;3.22;;;2.25;;
10045;SDS011;5063;50.878;4.742;2023-06-26T09:49:49;4.68;;;2.00;;
10045;SDS011;5063;50.878;4.742;2023-06-26T09:52:16;3.38;;;1.80;;
10045;SDS011;5063;50.878;4.742;2023-06-26T09:54:42;3.38;;;1.83;;
10045;SDS011;5063;50.878;4.742;2023-06-26T09:57:12;3.17;;;1.58;;
10045;SDS011;5063;50.878;4.742;2023-06-26T09:59:39;4.03;;;1.70;;
10045;SDS011;5063;50.878;4.742;2023-06-26T10:02:07;3.05;;;1.40;;
10045;SDS011;5063;50.878;4.742;2023-06-26T10:04:33;5.30;;;1.98;;
10045;SDS011;5063;50.878;4.742;2023-06-26T10:07:01;4.20;;;1.80;;
10045;SDS011;5063;50.878;4.742;2023-06-26T10:09:30;6.55;;;2.00;;
10045;SDS011;5063;50.878;4.742;2023-06-26T10:11:57;5.75;;;1.50;;
10045;SDS011;5063;50.878;4.742;2023-06-26T10:14:36;2.30;;;1.45;;
10045;SDS011;5063;50.878;4.742;2023-06-26T10:17:07;3.92;;;1.95;;
10045;SDS011;5063;50.878;4.742;2023-06-26T10:19:35;6.95;;;2.00;;
10045;SDS011;5063;50.878;4.742;2023-06-26T10:22:05;2.33;;;1.58;;
10045;SDS011;5063;50.878;4.742;2023-06-26T10:24:33;5.38;;;1.90;;
10045;SDS011;5063;50.878;4.742;2023-06-26T10:27:07;2.42;;;1.60;;
10045;SDS011;5063;50.878;4.742;2023-06-26T10:29:39;5.53;;;1.77;;
10045;SDS011;5063;50.878;4.742;2023-06-26T10:32:06;3.70;;;1.73;;
10045;SDS011;5063;50.878;4.742;2023-06-26T10:34:34;3.33;;;1.65;;
10045;SDS011;5063;50.878;4.742;2023-06-26T10:37:01;2.75;;;1.52;;
10045;SDS011;5063;50.878;4.742;2023-06-26T10:42:14;5.43;;;1.20;;
10045;SDS011;5063;50.878;4.742;2023-06-26T10:44:45;2.60;;;1.33;;
10045;SDS011;5063;50.878;4.742;2023-06-26T10:47:12;2.65;;;1.60;;
10045;SDS011;5063;50.878;4.742;2023-06-26T10:49:55;1.67;;;1.23;;
10045;SDS011;5063;50.878;4.742;2023-06-26T10:52:21;2.38;;;1.23;;
10045;SDS011;5063;50.878;4.742;2023-06-26T10:54:47;3.42;;;1.33;;
10045;SDS011;5063;50.878;4.742;2023-06-26T10:57:12;5.00;;;1.50;;
10045;SDS011;5063;50.878;4.742;2023-06-26T10:59:52;11.25;;;1.60;;
10045;SDS011;5063;50.878;4.742;2023-06-26T11:03:13;2.30;;;1.65;;
10045;SDS011;5063;50.878;4.742;2023-06-26T11:05:48;2.08;;;1.38;;
10045;SDS011;5063;50.878;4.742;2023-06-26T11:08:50;1.63;;;1.20;;
10045;SDS011;5063;50.878;4.742;2023-06-26T11:11:18;3.63;;;1.83;;
10045;SDS011;5063;50.878;4.742;2023-06-26T11:13:45;2.55;;;1.58;;
10045;SDS011;5063;50.878;4.742;2023-06-26T11:16:12;3.47;;;1.30;;
10045;SDS011;5063;50.878;4.742;2023-06-26T11:18:40;3.55;;;1.50;;
10045;SDS011;5063;50.878;4.742;2023-06-26T11:21:10;4.65;;;1.52;;
10045;SDS011;5063;50.878;4.742;2023-06-26T11:23:39;3.55;;;1.73;;
10045;SDS011;5063;50.878;4.742;2023-06-26T11:26:16;4.28;;;2.00;;
10045;SDS011;5063;50.878;4.742;2023-06-26T11:28:49;2.65;;;1.80;;
10045;SDS011;5063;50.878;4.742;2023-06-26T11:31:27;3.70;;;1.90;;
10045;SDS011;5063;50.878;4.742;2023-06-26T11:33:58;3.20;;;1.70;;
10045;SDS011;5063;50.878;4.742;2023-06-26T11:36:26;3.15;;;1.52;;
10045;SDS011;5063;50.878;4.742;2023-06-26T11:38:56;6.43;;;1.80;;
10045;SDS011;5063;50.878;4.742;2023-06-26T11:41:24;3.33;;;1.63;;
10045;SDS011;5063;50.878;4.742;2023-06-26T11:43:51;2.78;;;1.90;;
10045;SDS011;5063;50.878;4.742;2023-06-26T11:46:18;3.38;;;1.60;;
10045;SDS011;5063;50.878;4.742;2023-06-26T11:48:45;3.55;;;1.83;;
10045;SDS011;5063;50.878;4.742;2023-06-26T11:51:17;4.40;;;1.83;;
10045;SDS011;5063;50.878;4.742;2023-06-26T11:53:43;4.28;;;1.67;;
10045;SDS011;5063;50.878;4.742;2023-06-26T11:56:11;6.13;;;1.88;;
10045;SDS011;5063;50.878;4.742;2023-06-26T12:04:05;3.05;;;1.25;;
10045;SDS011;5063;50.878;4.742;2023-06-26T12:06:36;2.72;;;1.67;;
10045;SDS011;5063;50.878;4.742;2023-06-26T12:09:06;2.65;;;1.48;;
10045;SDS011;5063;50.878;4.742;2023-06-26T12:11:34;3.28;;;1.63;;
10045;SDS011;5063;50.878;4.742;2023-06-26T12:14:02;3.03;;;1.70;;
10045;SDS011;5063;50.878;4.742;2023-06-26T12:16:30;2.97;;;1.65;;
10045;SDS011;5063;50.878;4.742;2023-06-26T12:19:02;4.45;;;2.00;;
10045;SDS011;5063;50.878;4.742;2023-06-26T12:24:12;3.03;;;1.98;;
10045;SDS011;5063;50.878;4.742;2023-06-26T12:26:44;4.40;;;1.75;;
10045;SDS011;5063;50.878;4.742;2023-06-26T12:29:13;4.22;;;1.85;;
10045;SDS011;5063;50.878;4.742;2023-06-26T12:31:43;5.85;;;1.92;;
10045;SDS011;5063;50.878;4.742;2023-06-26T12:34:11;5.45;;;2.08;;
10045;SDS011;5063;50.878;4.742;2023-06-26T12:36:49;3.22;;;1.77;;
10045;SDS011;5063;50.878;4.742;2023-06-26T12:39:17;1.80;;;1.65;;
10045;SDS011;5063;50.878;4.742;2023-06-26T12:44:16;5.10;;;2.15;;
10045;SDS011;5063;50.878;4.742;2023-06-26T12:46:53;5.70;;;2.35;;
10045;SDS011;5063;50.878;4.742;2023-06-26T12:49:20;2.38;;;1.50;;
10045;SDS011;5063;50.878;4.742;2023-06-26T12:51:53;3.22;;;2.05;;
10045;SDS011;5063;50.878;4.742;2023-06-26T12:54:19;2.45;;;1.58;;
10045;SDS011;5063;50.878;4.742;2023-06-26T12:56:45;3.63;;;1.60;;
10045;SDS011;5063;50.878;4.742;2023-06-26T12:59:11;5.22;;;1.50;;
10045;SDS011;5063;50.878;4.742;2023-06-26T13:01:36;2.97;;;1.45;;
10045;SDS011;5063;50.878;4.742;2023-06-26T13:04:02;3.22;;;1.83;;
10045;SDS011;5063;50.878;4.742;2023-06-26T13:06:29;5.72;;;1.85;;
10045;SDS011;5063;50.878;4.742;2023-06-26T13:08:54;3.50;;;2.03;;
10045;SDS011;5063;50.878;4.742;2023-06-26T13:11:20;2.63;;;1.52;;
10045;SDS011;5063;50.878;4.742;2023-06-26T13:13:47;4.55;;;1.80;;
10045;SDS011;5063;50.878;4.742;2023-06-26T13:16:13;2.00;;;1.52;;
10045;SDS011;5063;50.878;4.742;2023-06-26T13:18:39;3.72;;;1.73;;
10045;SDS011;5063;50.878;4.742;2023-06-26T13:21:04;5.70;;;1.95;;
10045;SDS011;5063;50.878;4.742;2023-06-26T13:23:30;4.10;;;1.80;;
10045;SDS011;5063;50.878;4.742;2023-06-26T13:25:56;4.95;;;1.67;;
10045;SDS011;5063;50.878;4.742;2023-06-26T13:28:21;4.22;;;1.60;;
10045;SDS011;5063;50.878;4.742;2023-06-26T13:30:47;3.03;;;1.58;;
10045;SDS011;5063;50.878;4.742;2023-06-26T13:33:13;5.78;;;2.20;;
10045;SDS011;5063;50.878;4.742;2023-06-26T13:35:39;3.13;;;1.50;;
10045;SDS011;5063;50.878;4.742;2023-06-26T13:38:04;2.83;;;1.85;;
10045;SDS011;5063;50.878;4.742;2023-06-26T13:40:30;4.70;;;1.88;;
10045;SDS011;5063;50.878;4.742;2023-06-26T13:42:56;2.90;;;1.88;;
10045;SDS011;5063;50.878;4.742;2023-06-26T13:45:21;4.13;;;1.90;;
10045;SDS011;5063;50.878;4.742;2023-06-26T13:47:47;3.40;;;1.70;;
10045;SDS011;5063;50.878;4.742;2023-06-26T13:50:13;7.50;;;2.00;;
10045;SDS011;5063;50.878;4.742;2023-06-26T13:52:39;2.78;;;1.67;;
10045;SDS011;5063;50.878;4.742;2023-06-26T13:55:05;3.65;;;1.95;;
10045;SDS011;5063;50.878;4.742;2023-06-26T13:57:31;2.63;;;1.48;;
10045;SDS011;5063;50.878;4.742;2023-06-26T13:59:57;4.45;;;1.75;;
10045;SDS011;5063;50.878;4.742;2023-06-26T14:02:23;4.85;;;2.10;;
10045;SDS011;5063;50.878;4.742;2023-06-26T14:04:48;4.55;;;1.75;;
10045;SDS011;5063;50.878;4.742;2023-06-26T14:07:14;5.47;;;1.58;;
10045;SDS011;5063;50.878;4.742;2023-06-26T14:09:40;2.65;;;1.35;;
10045;SDS011;5063;50.878;4.742;2023-06-26T14:12:06;3.92;;;1.73;;
10045;SDS011;5063;50.878;4.742;2023-06-26T14:14:33;3.30;;;1.55;;
10045;SDS011;5063;50.878;4.742;2023-06-26T14:16:59;4.10;;;1.90;;
10045;SDS011;5063;50.878;4.742;2023-06-26T14:19:25;3.28;;;1.60;;
10045;SDS011;5063;50.878;4.742;2023-06-26T14:21:51;2.72;;;2.03;;
10045;SDS011;5063;50.878;4.742;2023-06-26T14:24:17;4.00;;;1.65;;
10045;SDS011;5063;50.878;4.742;2023-06-26T14:26:43;2.10;;;1.48;;
10045;SDS011;5063;50.878;4.742;2023-06-26T14:29:08;4.07;;;1.73;;
10045;SDS011;5063;50.878;4.742;2023-06-26T14:31:34;4.93;;;1.80;;
10045;SDS011;5063;50.878;4.742;2023-06-26T14:34:00;6.57;;;2.10;;
10045;SDS011;5063;50.878;4.742;2023-06-26T14:36:27;4.70;;;2.15;;
10045;SDS011;5063;50.878;4.742;2023-06-26T14:38:56;2.15;;;1.63;;
10045;SDS011;5063;50.878;4.742;2023-06-26T14:41:22;3.85;;;2.17;;
10045;SDS011;5063;50.878;4.742;2023-06-26T14:43:47;3.97;;;1.65;;
10045;SDS011;5063;50.878;4.742;2023-06-26T14:46:13;4.82;;;2.10;;
10045;SDS011;5063;50.878;4.742;2023-06-26T14:48:39;5.50;;;1.48;;
10045;SDS011;5063;50.878;4.742;2023-06-26T14:51:05;2.60;;;1.50;;
10045;SDS011;5063;50.878;4.742;2023-06-26T14:53:30;3.85;;;1.50;;
10045;SDS011;5063;50.878;4.742;2023-06-26T14:55:56;4.22;;;1.65;;
10045;SDS011;5063;50.878;4.742;2023-06-26T14:58:22;4.20;;;1.83;;
10045;SDS011;5063;50.878;4.742;2023-06-26T15:00:48;3.60;;;2.00;;
10045;SDS011;5063;50.878;4.742;2023-06-26T15:03:14;2.17;;;1.63;;
10045;SDS011;5063;50.878;4.742;2023-06-26T15:05:39;3.83;;;1.70;;
10045;SDS011;5063;50.878;4.742;2023-06-26T15:08:05;4.90;;;1.60;;
10045;SDS011;5063;50.878;4.742;2023-06-26T15:10:31;3.83;;;1.50;;
10045;SDS011;5063;50.878;4.742;2023-06-26T15:12:56;5.22;;;1.98;;
10045;SDS011;5063;50.878;4.742;2023-06-26T15:15:23;2.80;;;1.73;;
10045;SDS011;5063;50.878;4.742;2023-06-26T15:17:49;2.95;;;1.90;;
10045;SDS011;5063;50.878;4.742;2023-06-26T15:20:15;3.78;;;1.80;;